Time;durP1;ratioP1;P1;durP2;ratioP2;P2;SDS_P1;SDS_P2;PMS_P1;PMS_P2;Temp;Humidity;BMP_temperature;BMP_pressure;BME280_temperature;BME280_humidity;BME280_pressure;Samples;Min_cycle;Max_cycle;Signal;HPM_P1;HPM_P2
2023/07/04 00:01:04;;;;;;;6.03;3.85;;;;;;;22.33;59.95;94626.78;4200008;28;20128;-57
2023/07/04 00:03:06;;;;;;;5.63;4.18;;;;;;;22.35;60.38;94629.19;4203133;28;20052;-61
2023/07/04 00:05:08;;;;;;;5.60;3.58;;;;;;;22.36;60.13;94626.28;4213258;28;20040;-57
2023/07/04 00:07:10;;;;;;;4.82;3.60;;;;;;;22.36;60.07;94626.28;4207869;28;20525;-57
2023/07/04 00:09:12;;;;;;;8.95;4.10;;;;;;;22.32;60.37;94629.66;4212836;28;20486;-57
2023/07/04 00:11:13;;;;;;;4.30;3.90;;;;;;;22.29;60.33;94631.75;4203717;28;20044;-61
2023/07/04 00:13:15;;;;;;;5.35;4.05;;;;;;;22.25;60.63;94635.94;4213029;28;20048;-60
2023/07/04 00:15:17;;;;;;;4.45;3.90;;;;;;;22.24;60.85;94634.31;4207276;28;20131;-58
2023/07/04 00:17:19;;;;;;;6.47;4.05;;;;;;;22.25;61.09;94633.25;4208823;28;20040;-60
2023/07/04 00:19:20;;;;;;;5.78;4.57;;;;;;;22.26;60.78;94629.56;4197225;28;20060;-60
2023/07/04 00:21:23;;;;;;;7.60;4.68;;;;;;;22.31;61.04;94633.41;4207580;28;20047;-58
2023/07/04 00:23:29;;;;;;;8.35;4.30;;;;;;;22.21;60.86;94628.59;4207419;28;20839;-57
2023/07/04 00:25:32;;;;;;;5.30;4.32;;;;;;;21.94;61.70;94636.25;4208965;28;20054;-56
2023/07/04 00:27:34;;;;;;;8.45;4.70;;;;;;;21.75;62.73;94635.56;4212107;28;20056;-57
2023/07/04 00:29:36;;;;;;;9.02;4.40;;;;;;;21.64;62.87;94635.31;4208534;28;20040;-57
2023/07/04 00:31:37;;;;;;;7.53;4.75;;;;;;;21.60;63.02;94628.81;4208574;28;20472;-59
2023/07/04 00:33:39;;;;;;;11.23;4.38;;;;;;;21.54;63.30;94635.03;4212505;28;20081;-59
2023/07/04 00:35:41;;;;;;;8.07;4.72;;;;;;;21.55;63.50;94639.31;4212212;28;20382;-58
2023/07/04 00:37:43;;;;;;;6.10;4.25;;;;;;;21.64;63.25;94632.63;4200470;28;20048;-60
2023/07/04 00:39:45;;;;;;;6.17;4.73;;;;;;;21.74;62.91;94632.06;4198706;28;20486;-58
2023/07/04 00:41:47;;;;;;;5.60;4.45;;;;;;;21.82;62.44;94628.25;4206075;28;20044;-59
2023/07/04 00:44:00;;;;;;;8.23;4.60;;;;;;;21.88;62.52;94624.66;4212387;28;20394;-59
2023/07/04 00:46:03;;;;;;;6.40;4.27;;;;;;;21.87;62.15;94626.50;4202357;28;20545;-58
2023/07/04 00:48:05;;;;;;;6.85;4.40;;;;;;;21.88;61.97;94628.13;4208727;28;20048;-59
2023/07/04 00:50:09;;;;;;;6.95;4.45;;;;;;;21.89;61.84;94619.09;4202954;28;20067;-57
2023/07/04 00:52:10;;;;;;;;;;;;;;;21.89;61.96;94616.41;4197397;28;20513;-59
2023/07/04 00:54:12;;;;;;;6.45;4.38;;;;;;;21.93;62.00;94618.63;4204596;28;19951;-58
2023/07/04 00:56:15;;;;;;;6.43;4.60;;;;;;;21.94;62.11;94621.09;4204243;28;20151;-59
2023/07/04 00:58:17;;;;;;;6.22;4.60;;;;;;;21.92;62.30;94617.84;4206468;28;20056;-58
2023/07/04 01:00:23;;;;;;;5.80;4.33;;;;;;;21.88;61.93;94624.66;4211113;28;20052;-57
2023/07/04 01:02:29;;;;;;;5.20;4.47;;;;;;;21.87;62.34;94623.84;4208048;28;20160;-58
2023/07/04 01:04:32;;;;;;;22.17;16.27;;;;;;;21.88;62.25;94624.66;4205006;28;20144;-58
2023/07/04 01:06:38;;;;;;;;;;;;;;;21.87;62.34;94629.16;4210574;28;20048;-58
2023/07/04 01:08:42;;;;;;;7.32;4.60;;;;;;;21.91;62.19;94624.19;4212160;28;19920;-57
2023/07/04 01:10:46;;;;;;;6.10;4.70;;;;;;;21.94;62.17;94620.25;4212962;28;20126;-58
2023/07/04 01:12:48;;;;;;;11.18;5.80;;;;;;;21.93;62.54;94630.09;4208707;28;20498;-60
2023/07/04 01:14:53;;;;;;;10.70;5.20;;;;;;;21.95;62.67;94627.22;4207877;28;20036;-60
2023/07/04 01:16:56;;;;;;;9.18;5.45;;;;;;;21.92;62.71;94630.34;4207427;28;20063;-58
2023/07/04 01:18:58;;;;;;;7.93;5.50;;;;;;;21.93;62.79;94626.63;4212469;28;20469;-57
2023/07/04 01:21:01;;;;;;;6.43;5.15;;;;;;;21.96;62.74;94626.16;4204551;28;20316;-58
2023/07/04 01:23:14;;;;;;;7.60;5.20;;;;;;;21.98;62.75;94632.06;4202271;28;20044;-58
2023/07/04 01:25:28;;;;;;;6.38;4.97;;;;;;;21.97;62.79;94625.13;4206925;28;20044;-56
2023/07/04 01:27:30;;;;;;;7.40;4.88;;;;;;;21.97;62.67;94620.59;4209891;28;20052;-57
2023/07/04 01:29:36;;;;;;;5.80;5.07;;;;;;;21.91;62.76;94620.72;4208352;28;20059;-58
2023/07/04 01:31:37;;;;;;;47.25;30.30;;;;;;;21.87;63.19;94617.69;4210519;28;20094;-58
2023/07/04 01:33:40;;;;;;;10.85;7.13;;;;;;;21.82;63.28;94621.06;4210484;28;20044;-58
2023/07/04 01:35:43;;;;;;;11.23;6.78;;;;;;;21.83;63.39;94620.03;4210030;28;20040;-60
2023/07/04 01:37:45;;;;;;;10.10;5.70;;;;;;;21.81;63.76;94619.44;4209752;28;20044;-59
2023/07/04 01:39:46;;;;;;;6.25;5.32;;;;;;;21.82;63.82;94620.25;4212473;28;20499;-58
2023/07/04 01:41:49;;;;;;;5.97;5.38;;;;;;;21.80;63.72;94617.00;4212208;28;20555;-61
2023/07/04 01:44:09;;;;;;;10.48;6.32;;;;;;;21.78;64.11;94624.41;4208968;28;20137;-59
2023/07/04 01:46:11;;;;;;;10.90;5.60;;;;;;;21.79;64.13;94624.19;4200156;28;20051;-58
2023/07/04 01:48:13;;;;;;;10.57;5.78;;;;;;;21.80;64.11;94620.47;4212249;28;20622;-59
2023/07/04 01:50:15;;;;;;;7.82;6.10;;;;;;;21.80;63.92;94623.16;4203751;28;20074;-58
2023/07/04 01:52:17;;;;;;;6.60;5.78;;;;;;;21.81;64.27;94623.94;4210855;28;20107;-58
2023/07/04 01:54:19;;;;;;;8.75;5.82;;;;;;;21.79;63.86;94634.03;4198139;28;20077;-58
2023/07/04 01:56:20;;;;;;;7.28;6.07;;;;;;;21.76;64.19;94629.97;4204671;28;20124;-59
2023/07/04 01:58:22;;;;;;;6.75;5.93;;;;;;;21.77;64.43;94628.94;4208507;28;20044;-58
2023/07/04 02:00:24;;;;;;;6.90;5.82;;;;;;;21.75;64.26;94624.91;4199056;28;20048;-59
2023/07/04 02:02:25;;;;;;;8.82;6.22;;;;;;;21.60;64.32;94626.13;4197389;28;20792;-60
2023/07/04 02:04:27;;;;;;;13.85;7.10;;;;;;;21.49;64.87;94637.59;4203711;28;20391;-57
2023/07/04 02:06:29;;;;;;;10.32;5.55;;;;;;;21.43;65.09;94639.31;4199187;28;20048;-58
2023/07/04 02:08:31;;;;;;;8.18;5.45;;;;;;;21.42;65.19;94639.53;4209223;28;20784;-59
2023/07/04 02:10:33;;;;;;;11.70;5.85;;;;;;;21.41;65.41;94640.56;4200977;28;20057;-58
2023/07/04 02:12:34;;;;;;;11.52;6.18;;;;;;;21.40;65.30;94633.59;4209496;28;20520;-59
2023/07/04 02:14:36;;;;;;;7.30;5.57;;;;;;;21.40;65.32;94636.25;4209778;28;20537;-57
2023/07/04 02:16:37;;;;;;;9.73;5.95;;;;;;;21.36;65.47;94635.91;4210141;28;20052;-58
2023/07/04 02:18:39;;;;;;;9.13;6.03;;;;;;;21.10;66.18;94639.75;4211808;28;20466;-60
2023/07/04 02:20:41;;;;;;;9.45;5.80;;;;;;;20.98;66.53;94639.69;4210600;28;20529;-59
2023/07/04 02:22:43;;;;;;;10.30;6.15;;;;;;;20.96;66.76;94644.44;4203922;28;20052;-60
2023/07/04 02:24:45;;;;;;;8.02;5.53;;;;;;;20.98;67.00;94642.38;4203990;28;20067;-60
2023/07/04 02:26:47;;;;;;;7.55;5.40;;;;;;;21.07;66.85;94626.88;4210384;28;20043;-58
2023/07/04 02:28:48;;;;;;;9.05;6.20;;;;;;;21.12;66.57;94635.00;4210030;28;20048;-56
2023/07/04 02:30:58;;;;;;;8.95;5.82;;;;;;;21.16;66.15;94630.84;4203245;28;20553;-59
2023/07/04 02:33:00;;;;;;;8.35;5.97;;;;;;;21.20;66.04;94629.34;4205057;28;20462;-57
2023/07/04 02:35:02;;;;;;;6.63;5.82;;;;;;;21.21;65.94;94630.19;4210260;28;20109;-58
2023/07/04 02:37:04;;;;;;;8.60;6.30;;;;;;;21.17;66.18;94627.16;4208253;28;20131;-59
2023/07/04 02:39:06;;;;;;;8.95;6.22;;;;;;;21.12;66.13;94623.53;4204077;28;20448;-59
2023/07/04 02:41:08;;;;;;;14.32;6.80;;;;;;;20.96;66.71;94628.47;4207986;28;20048;-59
2023/07/04 02:43:10;;;;;;;9.03;6.80;;;;;;;20.82;67.41;94627.84;4200837;28;20158;-58
2023/07/04 02:45:12;;;;;;;10.32;7.13;;;;;;;20.67;67.80;94624.72;4208675;28;20690;-59
2023/07/04 02:47:14;;;;;;;9.32;6.70;;;;;;;20.66;67.88;94628.44;4198208;28;20188;-58
2023/07/04 02:49:16;;;;;;;11.15;7.60;;;;;;;20.60;68.21;94626.66;4199368;28;20415;-58
2023/07/04 02:51:17;;;;;;;9.85;6.53;;;;;;;20.62;68.40;94628.06;4194785;28;20040;-58
2023/07/04 02:53:22;;;;;;;10.70;7.57;;;;;;;20.68;68.22;94630.88;4209461;28;20051;-59
2023/07/04 02:55:23;;;;;;;14.52;7.65;;;;;;;20.72;68.12;94627.53;4201911;28;20052;-58
2023/07/04 02:57:25;;;;;;;12.20;7.13;;;;;;;20.78;67.79;94633.81;4208793;28;20052;-59
2023/07/04 02:59:27;;;;;;;16.02;8.15;;;;;;;20.83;67.84;94625.97;4209297;28;20117;-61
2023/07/04 03:01:29;;;;;;;15.07;8.75;;;;;;;20.89;67.38;94626.91;4211401;28;20295;-59
2023/07/04 03:03:31;;;;;;;17.55;8.40;;;;;;;20.92;67.13;94629.13;4203276;28;20407;-58
2023/07/04 03:05:35;;;;;;;10.80;8.75;;;;;;;20.86;67.10;94629.00;4206619;28;20043;-60
2023/07/04 03:07:36;;;;;;;12.38;9.40;;;;;;;20.59;67.73;94630.38;4210876;28;20458;-57
2023/07/04 03:09:38;;;;;;;19.00;9.88;;;;;;;20.29;68.60;94633.72;4204387;28;20504;-59
2023/07/04 03:11:39;;;;;;;19.38;10.70;;;;;;;20.14;69.23;94635.94;4208959;28;20101;-58
2023/07/04 03:13:41;;;;;;;21.75;10.48;;;;;;;20.03;69.99;94629.50;4200709;28;20110;-58
2023/07/04 03:15:43;;;;;;;20.05;10.48;;;;;;;20.11;69.91;94631.03;4207287;28;20067;-58
2023/07/04 03:17:45;;;;;;;14.43;9.90;;;;;;;20.24;69.41;94625.59;4209370;28;20044;-57
2023/07/04 03:19:46;;;;;;;16.90;9.38;;;;;;;20.38;69.14;94631.59;4209166;28;20520;-57
2023/07/04 03:21:48;;;;;;;14.95;9.38;;;;;;;20.49;68.68;94632.69;4209514;28;20051;-56
2023/07/04 03:23:50;;;;;;;18.23;11.25;;;;;;;20.42;68.58;94633.59;4201356;28;20054;-58
2023/07/04 03:25:51;;;;;;;13.45;8.93;;;;;;;20.42;68.62;94628.25;4196860;28;20043;-59
2023/07/04 03:27:53;;;;;;;12.02;7.65;;;;;;;20.39;68.57;94631.38;4205450;28;20041;-58
2023/07/04 03:29:55;;;;;;;19.13;7.30;;;;;;;20.36;68.42;94623.81;4209587;28;20474;-58
2023/07/04 03:31:56;;;;;;;10.88;6.72;;;;;;;20.42;68.32;94628.25;4208794;28;20540;-59
2023/07/04 03:33:58;;;;;;;9.80;6.60;;;;;;;20.15;68.55;94625.06;4209964;28;20051;-58
2023/07/04 03:36:00;;;;;;;11.43;6.65;;;;;;;20.02;69.28;94626.00;4209578;28;20417;-61
2023/07/04 03:38:01;;;;;;;11.07;6.95;;;;;;;20.00;69.46;94627.25;4206289;28;20060;-59
2023/07/04 03:40:07;;;;;;;13.27;7.68;;;;;;;20.14;69.71;94633.28;4206084;28;20052;-59
2023/07/04 03:42:09;;;;;;;12.68;7.60;;;;;;;20.30;69.65;94624.69;4210924;28;20079;-62
2023/07/04 03:44:10;;;;;;;9.88;6.82;;;;;;;20.51;69.00;94638.63;4199799;28;20489;-62
2023/07/04 03:46:12;;;;;;;8.98;6.88;;;;;;;20.66;68.13;94639.88;4199470;28;20044;-60
2023/07/04 03:48:14;;;;;;;12.73;7.55;;;;;;;20.81;67.81;94636.84;4207539;28;20111;-58
2023/07/04 03:50:16;;;;;;;9.07;6.55;;;;;;;20.95;67.10;94637.50;4203363;28;20517;-59
2023/07/04 03:52:17;;;;;;;9.35;6.53;;;;;;;21.06;66.32;94633.25;4209500;28;20052;-59
2023/07/04 03:54:19;;;;;;;16.40;7.38;;;;;;;21.13;65.95;94641.97;4204706;28;20052;-60
2023/07/04 03:56:21;;;;;;;13.13;7.68;;;;;;;21.07;65.92;94645.53;4200922;28;20044;-57
2023/07/04 03:58:23;;;;;;;10.18;6.95;;;;;;;21.00;66.19;94650.13;4209475;28;20051;-59
2023/07/04 04:00:25;;;;;;;8.95;7.07;;;;;;;20.99;66.51;94656.47;4202368;28;20692;-62
2023/07/04 04:02:26;;;;;;;12.63;6.63;;;;;;;21.00;66.18;94658.13;4210752;28;20074;-59
2023/07/04 04:04:28;;;;;;;12.48;7.03;;;;;;;20.94;66.20;94651.03;4204674;28;20583;-59
2023/07/04 04:06:30;;;;;;;15.63;7.95;;;;;;;20.99;66.10;94656.47;4204569;28;20059;-59
2023/07/04 04:08:32;;;;;;;10.48;7.45;;;;;;;20.89;66.14;94650.88;4208326;28;20066;-58
2023/07/04 04:10:33;;;;;;;11.82;8.23;;;;;;;20.73;66.50;94660.28;4207241;28;20101;-58
2023/07/04 04:12:35;;;;;;;13.05;8.57;;;;;;;20.46;66.89;94650.75;4205713;28;20048;-58
2023/07/04 04:14:37;;;;;;;12.82;8.50;;;;;;;20.02;68.26;94657.09;4210021;28;20047;-59
2023/07/04 04:16:39;;;;;;;13.82;8.88;;;;;;;19.47;70.06;94665.69;4208104;28;20044;-59
2023/07/04 04:18:41;;;;;;;14.18;8.50;;;;;;;18.99;71.69;94672.31;4210501;28;20040;-57
2023/07/04 04:20:42;;;;;;;16.42;8.45;;;;;;;18.69;72.76;94673.81;4210663;28;20052;-58
2023/07/04 04:22:45;;;;;;;12.63;8.07;;;;;;;18.63;72.91;94667.53;4209679;28;20486;-59
2023/07/04 04:24:47;;;;;;;13.80;8.80;;;;;;;18.65;73.06;94673.44;4201556;28;20483;-60
2023/07/04 04:26:49;;;;;;;13.40;8.52;;;;;;;18.51;73.68;94671.84;4201358;28;20048;-57
2023/07/04 04:28:51;;;;;;;13.70;8.13;;;;;;;18.59;73.46;94671.63;4207232;28;20040;-59
2023/07/04 04:30:53;;;;;;;15.50;8.50;;;;;;;18.68;73.06;94680.97;4212661;28;20040;-61
2023/07/04 04:32:55;;;;;;;15.35;8.68;;;;;;;18.68;73.45;94675.66;4211652;28;20516;-58
2023/07/04 04:34:57;;;;;;;13.60;8.43;;;;;;;18.76;72.75;94680.75;4213437;28;20048;-57
2023/07/04 04:36:59;;;;;;;14.35;8.88;;;;;;;18.83;72.46;94676.25;4213631;28;20052;-59
2023/07/04 04:39:01;;;;;;;12.05;8.30;;;;;;;18.93;72.52;94685.59;4212497;28;20048;-60
2023/07/04 04:41:05;;;;;;;12.43;8.45;;;;;;;18.81;72.89;94685.44;4203075;28;20187;-56
2023/07/04 04:43:08;;;;;;;11.00;8.57;;;;;;;19.00;72.66;94692.50;4202661;28;20056;-59
2023/07/04 04:45:11;;;;;;;10.93;8.18;;;;;;;19.01;71.89;94686.19;4205368;28;20071;-57
2023/07/04 04:47:13;;;;;;;14.15;8.18;;;;;;;19.16;71.96;94690.38;4213289;28;20097;-58
2023/07/04 04:49:17;;;;;;;11.05;7.22;;;;;;;19.31;71.26;94685.59;4205930;28;20078;-58
2023/07/04 04:51:20;;;;;;;9.55;7.53;;;;;;;19.52;71.15;94684.47;4206248;28;20139;-57
2023/07/04 04:53:24;;;;;;;16.15;8.07;;;;;;;19.73;70.00;94680.66;4205908;28;20052;-57
2023/07/04 04:55:27;;;;;;;13.80;7.70;;;;;;;19.89;69.88;94678.50;4205269;28;20052;-59
2023/07/04 04:57:29;;;;;;;12.93;7.95;;;;;;;20.19;69.51;94681.28;4207049;28;20048;-60
2023/07/04 04:59:31;;;;;;;12.25;7.68;;;;;;;20.46;68.26;94680.00;4205144;28;20080;-58
2023/07/04 05:01:36;;;;;;;12.32;8.05;;;;;;;20.51;67.43;94673.22;4197526;28;20146;-60
2023/07/04 05:03:38;;;;;;;14.38;8.57;;;;;;;20.67;67.39;94680.63;4209550;28;20040;-60
2023/07/04 05:05:40;;;;;;;14.50;7.30;;;;;;;20.85;66.68;94679.81;4207859;28;20047;-61
2023/07/04 05:07:41;;;;;;;22.60;8.43;;;;;;;21.05;66.02;94682.22;4200378;28;20048;-58
2023/07/04 05:09:43;;;;;;;10.63;7.90;;;;;;;21.19;65.10;94681.03;4198256;28;20063;-58
2023/07/04 05:11:45;;;;;;;10.65;8.73;;;;;;;21.37;64.85;94682.00;4210028;28;20131;-58
2023/07/04 05:13:47;;;;;;;12.13;8.95;;;;;;;21.55;64.52;94673.16;4195942;28;20052;-59
2023/07/04 05:15:58;;;;;;;15.85;9.10;;;;;;;21.66;63.66;94678.53;4209685;28;20468;-58
2023/07/04 05:17:59;;;;;;;11.25;8.75;;;;;;;21.77;63.88;94681.44;4209224;28;20130;-60
2023/07/04 05:20:01;;;;;;;19.23;9.80;;;;;;;21.85;63.22;94676.63;4210750;28;20115;-61
2023/07/04 05:22:03;;;;;;;13.20;8.63;;;;;;;21.82;63.04;94676.25;4201205;28;20052;-59
2023/07/04 05:24:05;;;;;;;12.90;9.57;;;;;;;21.74;63.12;94677.38;4204380;28;20044;-59
2023/07/04 05:26:09;;;;;;;21.80;9.15;;;;;;;21.79;63.81;94668.69;4204505;28;20044;-59
2023/07/04 05:28:10;;;;;;;12.57;8.07;;;;;;;21.93;63.19;94664.78;4200830;28;20048;-61
2023/07/04 05:30:13;;;;;;;22.67;9.25;;;;;;;21.98;63.21;94667.56;4201070;28;20051;-58
2023/07/04 05:32:15;;;;;;;14.47;8.57;;;;;;;22.08;62.96;94670.47;4210833;28;20135;-57
2023/07/04 05:34:16;;;;;;;13.77;8.05;;;;;;;22.05;62.95;94667.47;4212998;28;20055;-59
2023/07/04 05:36:18;;;;;;;13.20;8.52;;;;;;;22.08;62.62;94667.00;4209999;28;20044;-60
2023/07/04 05:38:21;;;;;;;14.13;7.60;;;;;;;22.17;62.74;94670.13;4208690;28;20126;-59
2023/07/04 05:40:22;;;;;;;16.23;7.85;;;;;;;22.29;63.05;94665.66;4208980;28;20063;-60
2023/07/04 05:42:25;;;;;;;14.60;8.02;;;;;;;22.29;62.53;94673.66;4211965;28;20054;-59
2023/07/04 05:44:27;;;;;;;10.93;7.50;;;;;;;22.34;62.24;94672.94;4209741;28;20094;-60
2023/07/04 05:46:29;;;;;;;13.30;7.53;;;;;;;22.47;62.26;94676.19;4206433;28;20044;-62
2023/07/04 05:48:32;;;;;;;13.35;8.95;;;;;;;22.53;62.01;94673.63;4205039;28;20364;-63
2023/07/04 05:50:34;;;;;;;18.25;8.35;;;;;;;22.59;61.84;94670.84;4199835;28;20056;-61
2023/07/04 05:52:36;;;;;;;14.35;8.38;;;;;;;22.41;62.30;94670.97;4199584;28;20048;-59
2023/07/04 05:54:37;;;;;;;10.60;7.07;;;;;;;22.42;62.30;94680.59;4211645;28;20064;-60
2023/07/04 05:56:39;;;;;;;9.75;6.85;;;;;;;22.37;62.37;94675.97;4205434;28;20052;-61
2023/07/04 05:58:43;;;;;;;14.02;7.43;;;;;;;22.28;63.15;94677.34;4205799;28;20041;-61
2023/07/04 06:00:44;;;;;;;;;;;;;;;22.37;63.17;94670.63;4202376;28;20128;-62
2023/07/04 06:02:49;;;;;;;19.27;7.47;;;;;;;22.52;62.66;94672.00;4199386;28;19920;-63
2023/07/04 06:04:50;;;;;;;7.63;6.80;;;;;;;22.72;61.92;94667.09;4203989;28;20045;-60
2023/07/04 06:06:53;;;;;;;10.57;6.97;;;;;;;22.92;61.42;94673.91;4208409;28;20048;-59
2023/07/04 06:08:56;;;;;;;11.65;7.65;;;;;;;22.64;61.37;94665.59;4203005;28;20055;-60
2023/07/04 06:11:04;;;;;;;14.13;7.95;;;;;;;22.57;62.23;94666.78;4205667;28;20057;-61
2023/07/04 06:13:05;;;;;;;10.88;7.35;;;;;;;22.66;62.08;94673.38;4207739;28;20074;-61
2023/07/04 06:15:08;;;;;;;15.57;6.93;;;;;;;22.49;61.81;94668.75;4204193;28;20045;-60
2023/07/04 06:17:09;;;;;;;8.50;6.68;;;;;;;22.51;61.67;94673.06;4212239;28;20459;-59
2023/07/04 06:19:11;;;;;;;7.72;6.38;;;;;;;22.26;61.64;94671.44;4210931;28;20482;-60
2023/07/04 06:21:18;;;;;;;10.18;6.60;;;;;;;22.05;62.89;94664.81;4210442;28;20059;-61
2023/07/04 06:23:35;;;;;;;8.05;6.60;;;;;;;22.08;62.37;94667.81;4199708;28;20126;-60
2023/07/04 06:25:36;;;;;;;9.65;6.78;;;;;;;22.22;62.22;94670.25;4201217;28;20131;-61
2023/07/04 06:27:41;;;;;;;11.90;6.38;;;;;;;22.43;61.71;94669.69;4205442;28;20101;-60
2023/07/04 06:29:46;;;;;;;13.32;7.18;;;;;;;22.56;61.30;94670.47;4204921;28;20473;-60
2023/07/04 06:31:49;;;;;;;16.08;7.30;;;;;;;22.72;61.56;94658.28;4203253;28;20080;-61
2023/07/04 06:33:51;;;;;;;15.85;7.15;;;;;;;22.98;60.95;94664.94;4195254;28;20047;-61
2023/07/04 06:35:52;;;;;;;9.43;6.78;;;;;;;23.24;60.40;94669.75;4194901;28;20064;-61
2023/07/04 06:37:54;;;;;;;13.63;7.40;;;;;;;23.40;59.12;94662.00;4204446;28;20502;-60
2023/07/04 06:39:56;;;;;;;18.42;7.60;;;;;;;23.54;59.65;94665.22;4205390;28;20091;-58
2023/07/04 06:41:57;;;;;;;16.48;8.75;;;;;;;23.43;59.36;94672.25;4209079;28;20075;-62
2023/07/04 06:43:59;;;;;;;12.93;7.90;;;;;;;23.52;59.06;94671.59;4198185;28;20494;-59
2023/07/04 06:46:01;;;;;;;16.15;8.38;;;;;;;23.47;58.97;94673.38;4203125;28;20511;-62
2023/07/04 06:48:05;;;;;;;14.48;8.45;;;;;;;23.46;59.09;94671.75;4211373;28;20120;-63
2023/07/04 06:50:07;;;;;;;18.02;8.68;;;;;;;23.35;59.20;94684.13;4197746;28;20519;-61
2023/07/04 06:52:09;;;;;;;13.20;8.32;;;;;;;23.04;59.76;94686.22;4210137;28;20047;-62
2023/07/04 06:54:11;;;;;;;11.45;8.20;;;;;;;22.88;60.48;94674.38;4210236;28;20154;-60
2023/07/04 06:56:21;;;;;;;12.88;8.07;;;;;;;22.72;60.61;94683.13;4211228;28;20060;-62
2023/07/04 06:58:22;;;;;;;9.88;7.32;;;;;;;22.53;61.21;94679.78;4207838;28;20043;-61
2023/07/04 07:00:24;;;;;;;10.20;7.60;;;;;;;22.72;61.34;94671.63;4203662;28;20048;-61
2023/07/04 07:02:26;;;;;;;10.13;6.78;;;;;;;23.02;60.51;94674.16;4204279;28;20048;-59
2023/07/04 07:04:27;;;;;;;11.50;7.13;;;;;;;23.33;59.40;94667.50;4211194;28;20405;-60
2023/07/04 07:06:29;;;;;;;11.00;7.70;;;;;;;23.57;58.80;94668.19;4205750;28;20383;-61
2023/07/04 07:08:32;;;;;;;14.70;8.30;;;;;;;23.74;59.04;94672.78;4209123;28;20052;-61
2023/07/04 07:10:36;;;;;;;11.23;7.40;;;;;;;23.86;58.70;94666.34;4202836;28;20052;-61
2023/07/04 07:12:38;;;;;;;13.25;7.63;;;;;;;24.07;58.55;94656.78;4211133;28;20138;-61
2023/07/04 07:14:39;;;;;;;14.73;8.35;;;;;;;24.20;57.66;94665.50;4210451;28;20083;-59
2023/07/04 07:16:41;;;;;;;15.45;7.78;;;;;;;24.23;57.46;94670.38;4209568;28;20131;-61
2023/07/04 07:18:44;;;;;;;13.43;7.93;;;;;;;24.29;56.72;94669.41;4211145;28;20127;-62
2023/07/04 07:20:46;;;;;;;14.32;7.88;;;;;;;24.41;56.61;94667.41;4210180;28;20144;-58
2023/07/04 07:22:47;;;;;;;11.55;7.07;;;;;;;24.39;57.02;94668.72;4208471;28;20044;-59
2023/07/04 07:24:49;;;;;;;10.75;7.30;;;;;;;24.43;56.33;94665.31;4206646;28;20044;-59
2023/07/04 07:26:51;;;;;;;14.68;7.70;;;;;;;24.60;56.02;94656.47;4200585;28;20058;-60
2023/07/04 07:28:55;;;;;;;9.25;6.82;;;;;;;24.82;55.73;94662.63;4199375;28;20122;-60
2023/07/04 07:31:04;;;;;;;12.35;6.88;;;;;;;24.76;55.28;94666.34;4209068;28;20059;-59
2023/07/04 07:33:06;;;;;;;12.95;6.97;;;;;;;24.52;56.08;94665.72;4208858;28;20437;-62
2023/07/04 07:35:09;;;;;;;16.40;8.60;;;;;;;24.45;56.55;94675.78;4210553;28;20092;-60
2023/07/04 07:37:12;;;;;;;11.60;7.00;;;;;;;24.59;56.26;94668.25;4210039;28;20422;-60
2023/07/04 07:39:15;;;;;;;11.85;7.30;;;;;;;24.52;55.76;94663.88;4210008;28;20052;-60
2023/07/04 07:41:17;;;;;;;;;;;;;;;24.39;56.41;94666.03;4210944;28;20051;-59
2023/07/04 07:43:19;;;;;;;22.85;10.98;;;;;;;24.29;56.12;94667.53;4198749;28;20352;-62
2023/07/04 07:45:21;;;;;;;21.17;6.88;;;;;;;24.20;55.73;94676.19;4195175;28;20047;-62
2023/07/04 07:47:24;;;;;;;14.77;7.70;;;;;;;24.28;56.02;94673.91;4201513;28;20036;-62
2023/07/04 07:49:26;;;;;;;12.50;6.22;;;;;;;24.56;55.61;94674.88;4200850;28;20114;-62
2023/07/04 07:51:29;;;;;;;12.88;7.95;;;;;;;24.59;55.59;94668.25;4195089;28;20044;-61
2023/07/04 07:53:31;;;;;;;10.13;6.57;;;;;;;24.76;54.98;94674.38;4194819;28;20048;-58
2023/07/04 07:55:32;;;;;;;13.48;5.85;;;;;;;25.03;54.70;94678.97;4201768;28;20677;-62
2023/07/04 07:57:34;;;;;;;10.82;6.20;;;;;;;25.18;54.21;94676.47;4210808;28;20048;-61
2023/07/04 07:59:36;;;;;;;8.65;5.72;;;;;;;25.17;54.18;94671.34;4203847;28;20124;-61
2023/07/04 08:01:38;;;;;;;7.30;5.70;;;;;;;25.33;53.88;94678.53;4211235;28;20127;-63
2023/07/04 08:03:40;;;;;;;8.20;4.75;;;;;;;25.26;53.69;94672.56;4203456;28;20131;-62
2023/07/04 08:05:43;;;;;;;7.60;5.43;;;;;;;25.22;53.75;94672.25;4204385;28;20126;-59
2023/07/04 08:07:44;;;;;;;8.98;5.05;;;;;;;25.32;53.56;94671.56;4207285;28;20293;-60
2023/07/04 08:09:46;;;;;;;12.38;5.53;;;;;;;25.47;53.65;94676.28;4207869;28;20059;-59
2023/07/04 08:11:48;;;;;;;12.18;5.47;;;;;;;25.61;53.37;94674.00;4207662;28;20043;-61
2023/07/04 08:13:54;;;;;;;7.60;4.95;;;;;;;25.86;53.05;94670.75;4209245;28;20525;-61
2023/07/04 08:15:56;;;;;;;9.70;5.30;;;;;;;26.04;51.98;94666.88;4211916;28;20044;-60
2023/07/04 08:18:08;;;;;;;10.05;5.07;;;;;;;26.14;51.91;94662.41;4214076;28;20075;-61
2023/07/04 08:20:11;;;;;;;11.32;5.05;;;;;;;26.30;51.87;94654.47;4210053;28;20047;-64
2023/07/04 08:22:12;;;;;;;14.35;5.57;;;;;;;26.50;51.65;94653.75;4197504;28;20059;-60
2023/07/04 08:24:15;;;;;;;14.82;6.03;;;;;;;26.48;51.08;94662.09;4205678;28;20087;-58
2023/07/04 08:26:19;;;;;;;14.68;7.22;;;;;;;26.54;51.19;94658.38;4200481;28;20128;-61
2023/07/04 08:28:22;;;;;;;7.03;5.05;;;;;;;26.27;50.59;94657.66;4207703;28;20056;-61
2023/07/04 08:30:23;;;;;;;6.88;4.45;;;;;;;26.34;50.38;94656.34;4196727;28;20128;-59
2023/07/04 08:32:27;;;;;;;7.82;5.50;;;;;;;26.48;50.82;94654.03;4213050;28;20052;-62
2023/07/04 08:34:28;;;;;;;;;;;;;;;26.57;49.78;94651.72;4212670;28;20759;-60
2023/07/04 08:36:30;;;;;;;9.95;5.57;;;;;;;26.73;50.87;94648.00;4200839;28;19924;-59
2023/07/04 08:38:32;;;;;;;8.48;5.20;;;;;;;26.83;49.41;94652.63;4205057;28;20094;-63
2023/07/04 08:40:34;;;;;;;7.38;4.68;;;;;;;26.73;48.62;94652.59;4205899;28;20136;-62
2023/07/04 08:42:37;;;;;;;10.32;4.55;;;;;;;26.67;49.89;94659.84;4204417;28;20379;-61
2023/07/04 08:44:42;;;;;;;6.00;5.00;;;;;;;26.85;50.26;94655.06;4205327;28;20036;-60
2023/07/04 08:46:46;;;;;;;9.98;5.72;;;;;;;27.00;49.79;94657.81;4210331;28;20429;-61
2023/07/04 08:48:48;;;;;;;9.43;5.93;;;;;;;27.12;48.90;94652.19;4212497;28;20048;-61
2023/07/04 08:50:52;;;;;;;7.53;4.78;;;;;;;27.26;48.40;94653.38;4202179;28;20469;-63
2023/07/04 08:53:10;;;;;;;37.65;31.70;;;;;;;27.43;48.16;94644.28;4212520;28;20541;-62
2023/07/04 08:55:13;;;;;;;7.55;5.25;;;;;;;27.52;47.94;94653.44;4206505;28;20140;-60
2023/07/04 08:57:47;;;;;;;;;;;;;;;27.50;46.32;94645.63;4212627;28;20051;-62
2023/07/04 08:59:55;;;;;;;12.15;5.28;;;;;;;27.39;47.37;94648.56;4196866;28;20306;-60
2023/07/04 09:02:04;;;;;;;10.75;5.30;;;;;;;27.24;47.23;94644.75;4211100;28;20055;-61
2023/07/04 09:04:17;;;;;;;9.48;5.47;;;;;;;27.29;48.52;94644.75;4203404;28;20048;-63
2023/07/04 09:06:24;;;;;;;;;;;;;;;27.35;49.29;94645.59;4205561;28;20044;-61
2023/07/04 09:08:49;;;;;;;13.63;5.53;;;;;;;27.41;48.27;94638.34;4210266;28;19926;-60
2023/07/04 09:10:53;;;;;;;10.52;5.65;;;;;;;27.58;48.04;94637.03;4205402;28;20040;-61
2023/07/04 09:12:56;;;;;;;9.32;5.38;;;;;;;27.74;47.49;94631.66;4213056;28;20062;-61
2023/07/04 09:15:08;;;;;;;17.52;5.93;;;;;;;27.70;47.14;94644.03;4205075;28;20186;-59
2023/07/04 09:17:27;;;;;;;8.13;6.50;;;;;;;27.29;46.63;94636.69;4200243;28;20590;-61
2023/07/04 09:19:34;;;;;;;8.00;5.75;;;;;;;27.48;47.35;94639.69;4206958;28;20048;-58
2023/07/04 09:21:36;;;;;;;10.27;5.85;;;;;;;27.65;46.80;94635.97;4198471;28;20052;-59
2023/07/04 09:23:39;;;;;;;10.65;6.15;;;;;;;27.78;46.95;94638.13;4203539;28;20045;-60
2023/07/04 09:25:41;;;;;;;14.50;5.88;;;;;;;27.86;46.59;94631.44;4209631;28;20052;-62
2023/07/04 09:27:43;;;;;;;13.05;7.38;;;;;;;27.73;47.33;94633.53;4207489;28;20127;-58
2023/07/04 09:29:45;;;;;;;8.48;6.43;;;;;;;27.67;47.49;94634.59;4204969;28;20127;-59
2023/07/04 09:31:52;;;;;;;9.80;6.00;;;;;;;27.78;46.87;94633.53;4212039;28;20064;-61
2023/07/04 09:33:54;;;;;;;10.75;5.80;;;;;;;27.73;46.31;94627.34;4204158;28;22107;-61
2023/07/04 09:35:59;;;;;;;8.90;5.72;;;;;;;27.77;47.08;94623.84;4211305;28;20145;-59